createdAt,value
2024-01-14T00:00:35.960Z,67.70
2024-01-14T00:03:26.963Z,66.40
2024-01-14T00:05:55.527Z,68.70
2024-01-14T00:08:24.121Z,59.60
2024-01-14T00:10:53.151Z,63.50
2024-01-14T00:13:21.252Z,64.40
2024-01-14T00:15:49.381Z,62.80
2024-01-14T00:18:17.861Z,59.20
2024-01-14T00:20:46.286Z,57.70
2024-01-14T00:23:16.230Z,51.10
2024-01-14T00:25:44.346Z,52.30
2024-01-14T00:28:13.525Z,58.30
2024-01-14T00:30:41.983Z,62.80
2024-01-14T00:33:11.107Z,64.70
2024-01-14T00:35:42.408Z,68.40
2024-01-14T00:38:14.999Z,62.50
2024-01-14T00:40:43.774Z,63.30
2024-01-14T00:43:12.241Z,68.90
2024-01-14T00:45:41.535Z,68.30
2024-01-14T00:48:09.918Z,61.80
2024-01-14T00:50:40.796Z,62.40
2024-01-14T00:53:09.291Z,61.70
2024-01-14T00:55:40.569Z,58.80
2024-01-14T00:58:11.121Z,60.70
2024-01-14T01:00:40.672Z,63.30
2024-01-14T01:03:09.602Z,59.70
2024-01-14T01:05:37.946Z,60.60
2024-01-14T01:08:07.333Z,62.60
2024-01-14T01:10:36.568Z,63.20
2024-01-14T01:13:08.037Z,57.40
2024-01-14T01:15:36.623Z,63.40
2024-01-14T01:18:05.518Z,61.30
2024-01-14T01:20:34.372Z,60.60
2024-01-14T01:23:02.470Z,68.20
2024-01-14T01:25:34.717Z,60.70
2024-01-14T01:28:03.855Z,66.90
2024-01-14T01:30:32.386Z,59.00
2024-01-14T01:33:01.128Z,60.90
2024-01-14T01:35:29.470Z,63.80
2024-01-14T01:37:57.826Z,55.30
2024-01-14T01:40:26.800Z,61.10
2024-01-14T01:42:57.158Z,60.40
2024-01-14T01:45:25.642Z,64.40
2024-01-14T01:47:56.043Z,65.30
2024-01-14T01:50:25.239Z,58.00
2024-01-14T01:52:54.200Z,61.20
2024-01-14T01:55:22.612Z,58.20
2024-01-14T01:57:51.282Z,56.70
2024-01-14T02:00:21.251Z,53.80
2024-01-14T02:02:50.615Z,56.90
2024-01-14T02:05:20.589Z,58.10
2024-01-14T02:07:49.304Z,56.10
2024-01-14T02:10:17.834Z,58.20
2024-01-14T02:12:48.814Z,59.00
2024-01-14T02:15:17.232Z,63.40
2024-01-14T02:17:45.503Z,53.30
2024-01-14T02:20:15.700Z,58.60
2024-01-14T02:22:48.366Z,58.40
2024-01-14T02:25:18.999Z,58.80
2024-01-14T02:27:56.985Z,62.00
2024-01-14T02:30:25.381Z,56.40
2024-01-14T02:32:56.873Z,55.50
2024-01-14T02:35:26.316Z,60.10
2024-01-14T02:37:57.213Z,58.30
2024-01-14T02:40:26.388Z,63.70
2024-01-14T02:42:54.706Z,57.30
2024-01-14T02:45:22.930Z,61.40
2024-01-14T02:47:51.061Z,58.20
2024-01-14T02:50:19.200Z,56.50
2024-01-14T02:52:47.485Z,58.90
2024-01-14T02:55:15.995Z,52.90
2024-01-14T02:57:44.445Z,55.70
2024-01-14T03:00:14.410Z,56.90
2024-01-14T03:02:43.147Z,58.10
2024-01-14T03:05:13.010Z,61.80
2024-01-14T03:07:41.188Z,56.50
2024-01-14T03:10:10.992Z,50.90
2024-01-14T03:12:39.310Z,55.70
2024-01-14T03:15:10.401Z,55.60
2024-01-14T03:17:40.297Z,56.30
2024-01-14T03:20:09.783Z,62.30
2024-01-14T03:22:38.447Z,53.50
2024-01-14T03:25:09.098Z,60.00
2024-01-14T03:27:37.264Z,49.70
2024-01-14T03:30:09.858Z,51.30
2024-01-14T03:32:38.079Z,55.90
2024-01-14T03:35:06.343Z,53.00
2024-01-14T03:37:34.507Z,51.00
2024-01-14T03:40:04.712Z,54.30
2024-01-14T03:42:34.060Z,52.50
2024-01-14T03:45:05.905Z,55.40
2024-01-14T03:47:34.080Z,57.40
2024-01-14T03:50:02.263Z,54.10
2024-01-14T03:52:31.688Z,54.60
2024-01-14T03:55:00.743Z,49.20
2024-01-14T03:57:31.066Z,54.30
2024-01-14T03:59:59.905Z,56.40
2024-01-14T04:02:29.913Z,57.90
2024-01-14T04:04:58.137Z,50.00
2024-01-14T04:07:26.340Z,54.30
2024-01-14T04:09:54.365Z,56.50
2024-01-14T04:12:23.814Z,65.00
2024-01-14T04:14:52.535Z,56.90
2024-01-14T04:17:20.804Z,50.60
2024-01-14T04:19:49.437Z,51.50
2024-01-14T04:22:19.977Z,52.10
2024-01-14T04:24:48.296Z,50.50
2024-01-14T04:27:16.639Z,52.80
2024-01-14T04:29:44.868Z,49.30
2024-01-14T04:32:13.576Z,50.50
2024-01-14T04:34:42.744Z,53.50
2024-01-14T04:37:12.166Z,43.50
2024-01-14T04:39:41.819Z,40.80
2024-01-14T04:42:10.098Z,44.60
2024-01-14T04:44:38.833Z,46.90
2024-01-14T04:47:06.917Z,48.60
2024-01-14T04:49:35.677Z,44.00
2024-01-14T04:52:04.522Z,48.60
2024-01-14T04:54:32.631Z,47.30
2024-01-14T04:57:01.357Z,49.00
2024-01-14T04:59:29.481Z,46.40
2024-01-14T05:01:58.383Z,47.20
2024-01-14T05:04:28.712Z,48.60
2024-01-14T05:06:56.859Z,47.40
2024-01-14T05:09:26.679Z,44.80
2024-01-14T05:11:54.956Z,45.20
2024-01-14T05:14:23.096Z,43.90
2024-01-14T05:16:52.012Z,37.80
2024-01-14T05:19:21.928Z,46.10
2024-01-14T05:21:53.759Z,44.20
2024-01-14T05:24:21.977Z,47.40
2024-01-14T05:26:50.028Z,47.50
2024-01-14T05:29:18.406Z,46.60
2024-01-14T05:31:47.902Z,44.60
2024-01-14T05:34:16.693Z,42.30
2024-01-14T05:36:48.018Z,48.10
2024-01-14T05:39:16.423Z,44.60
2024-01-14T05:41:45.331Z,38.50
2024-01-14T05:44:14.053Z,45.80
2024-01-14T05:46:42.474Z,40.70
2024-01-14T05:49:12.038Z,46.60
2024-01-14T05:51:40.820Z,40.30
2024-01-14T05:54:09.100Z,37.90
2024-01-14T05:56:37.277Z,42.30
2024-01-14T05:59:08.505Z,43.10
2024-01-14T06:01:38.763Z,41.30
2024-01-14T06:04:06.887Z,42.70
2024-01-14T06:06:36.538Z,38.70
2024-01-14T06:09:05.093Z,44.00
2024-01-14T06:11:34.137Z,42.30
2024-01-14T06:14:02.242Z,44.30
2024-01-14T06:16:30.409Z,47.30
2024-01-14T06:19:00.614Z,42.90
2024-01-14T06:21:29.112Z,45.00
2024-01-14T06:23:57.224Z,48.90
2024-01-14T06:26:25.724Z,41.80
2024-01-14T06:28:53.858Z,43.40
2024-01-14T06:31:22.118Z,44.70
2024-01-14T06:33:50.512Z,44.30
2024-01-14T06:36:22.237Z,37.20
2024-01-14T06:38:50.361Z,40.40
2024-01-14T06:41:26.729Z,41.70
2024-01-14T06:43:55.432Z,42.90
2024-01-14T06:46:27.074Z,39.20
2024-01-14T06:48:57.206Z,39.40
2024-01-14T06:51:28.885Z,41.80
2024-01-14T06:53:57.172Z,42.30
2024-01-14T06:56:25.562Z,39.90
2024-01-14T06:58:53.728Z,39.50
2024-01-14T07:01:23.122Z,40.00
2024-01-14T07:03:53.854Z,46.60
2024-01-14T07:06:22.876Z,43.10
2024-01-14T07:08:53.332Z,43.10
2024-01-14T07:11:22.489Z,41.70
2024-01-14T07:13:51.879Z,45.70
2024-01-14T07:16:19.996Z,39.10
2024-01-14T07:18:50.475Z,40.20
2024-01-14T07:21:26.275Z,39.20
2024-01-14T07:23:54.888Z,36.70
2024-01-14T07:26:25.075Z,36.70
2024-01-14T07:28:54.687Z,39.70
2024-01-14T07:31:32.317Z,41.50
2024-01-14T07:34:00.771Z,40.40
2024-01-14T07:36:32.067Z,40.40
2024-01-14T07:39:03.768Z,39.60
2024-01-14T07:41:32.465Z,46.70
2024-01-14T07:44:00.744Z,42.60
2024-01-14T07:46:31.875Z,44.00
2024-01-14T07:49:05.612Z,42.10
2024-01-14T07:51:34.824Z,40.90
2024-01-14T07:54:02.989Z,39.40
2024-01-14T07:56:31.388Z,37.00
2024-01-14T07:58:59.610Z,37.40
2024-01-14T08:01:27.769Z,40.00
2024-01-14T08:03:56.053Z,40.40
2024-01-14T08:06:25.653Z,34.50
2024-01-14T08:08:54.171Z,32.30
2024-01-14T08:11:22.878Z,32.00
2024-01-14T08:13:52.898Z,35.80
2024-01-14T08:16:21.123Z,36.30
2024-01-14T08:18:49.301Z,44.60
2024-01-14T08:21:17.586Z,38.90
2024-01-14T08:23:45.727Z,38.00
2024-01-14T08:26:15.559Z,42.00
2024-01-14T08:28:43.757Z,44.20
2024-01-14T08:31:14.828Z,41.20
2024-01-14T08:33:45.634Z,41.10
2024-01-14T08:36:14.732Z,39.50
2024-01-14T08:38:43.433Z,39.50
2024-01-14T08:41:11.688Z,45.00
2024-01-14T08:43:40.058Z,41.10
2024-01-14T08:46:09.060Z,47.20
2024-01-14T08:48:37.840Z,47.20
2024-01-14T08:51:11.658Z,45.20
2024-01-14T08:53:41.620Z,46.70
2024-01-14T08:56:09.975Z,67.30
2024-01-14T08:58:39.314Z,41.60
2024-01-14T09:01:08.748Z,44.70
2024-01-14T09:03:37.140Z,45.00
2024-01-14T09:06:05.833Z,40.90
2024-01-14T09:08:35.528Z,40.00
2024-01-14T09:11:04.960Z,41.40
2024-01-14T09:13:33.718Z,40.60
2024-01-14T09:16:07.858Z,50.00
2024-01-14T09:18:37.906Z,41.80
2024-01-14T09:21:06.814Z,42.70
2024-01-14T09:23:36.895Z,39.40
2024-01-14T09:26:06.500Z,38.80
2024-01-14T09:28:37.339Z,38.90
2024-01-14T09:31:06.825Z,41.30
2024-01-14T09:33:35.168Z,37.00
2024-01-14T09:36:08.323Z,44.10
2024-01-14T09:38:37.515Z,44.50
2024-01-14T09:41:32.463Z,44.30
2024-01-14T09:44:05.112Z,40.90
2024-01-14T09:46:34.669Z,46.90
2024-01-14T09:49:03.971Z,43.70
2024-01-14T09:51:33.850Z,39.60
2024-01-14T09:54:04.190Z,48.90
2024-01-14T09:56:34.905Z,45.50
2024-01-14T09:59:12.476Z,41.80
2024-01-14T10:01:42.269Z,47.40
2024-01-14T10:04:12.755Z,50.20
2024-01-14T10:06:45.780Z,49.00
2024-01-14T10:09:14.404Z,47.50
2024-01-14T10:11:42.749Z,40.70
2024-01-14T10:14:13.061Z,43.20
2024-01-14T10:16:52.236Z,53.00
2024-01-14T10:19:23.870Z,48.50
2024-01-14T10:22:14.019Z,59.70
2024-01-14T10:24:55.780Z,49.40
2024-01-14T10:27:35.283Z,51.80
2024-01-14T10:30:14.948Z,50.80
2024-01-14T10:35:33.736Z,44.20
2024-01-14T10:38:03.306Z,42.20
2024-01-14T10:40:32.047Z,45.90
2024-01-14T10:43:04.257Z,52.20
2024-01-14T10:45:33.732Z,46.50
2024-01-14T10:48:08.460Z,41.80
2024-01-14T10:50:44.933Z,54.70
2024-01-14T10:53:23.552Z,51.50
2024-01-14T10:56:03.328Z,40.90
2024-01-14T10:58:37.718Z,42.90
2024-01-14T11:01:09.497Z,46.40
2024-01-14T11:03:40.513Z,46.70
2024-01-14T11:06:10.040Z,50.20
2024-01-14T11:08:39.339Z,45.20
2024-01-14T11:11:07.582Z,48.50
2024-01-14T11:14:10.087Z,46.40
2024-01-14T11:17:04.860Z,49.00
2024-01-14T11:19:38.008Z,46.20
2024-01-14T11:22:31.627Z,44.40
2024-01-14T11:25:05.552Z,48.10
2024-01-14T11:27:36.268Z,53.70
2024-01-14T11:30:15.795Z,55.00
2024-01-14T11:32:44.893Z,49.00
2024-01-14T11:35:36.880Z,52.20
2024-01-14T11:38:28.639Z,49.00
2024-01-14T11:40:57.631Z,46.60
2024-01-14T11:43:29.510Z,47.10
2024-01-14T11:46:00.591Z,54.90
2024-01-14T11:48:29.714Z,44.90
2024-01-14T11:51:00.584Z,44.40
2024-01-14T11:53:35.425Z,42.20
2024-01-14T11:56:04.582Z,41.90
2024-01-14T11:58:34.492Z,45.50
2024-01-14T12:01:03.985Z,43.00
2024-01-14T12:03:36.206Z,47.70
2024-01-14T12:06:05.526Z,41.10
2024-01-14T12:08:35.013Z,43.10
2024-01-14T12:11:07.080Z,45.60
2024-01-14T12:13:36.171Z,44.10
2024-01-14T12:16:04.618Z,45.00
2024-01-14T12:18:45.622Z,47.20
2024-01-14T12:21:27.588Z,42.10
2024-01-14T12:26:32.064Z,44.60
2024-01-14T12:29:00.818Z,47.60
2024-01-14T12:31:49.080Z,41.00
2024-01-14T12:34:21.540Z,44.10
2024-01-14T12:36:54.443Z,40.90
2024-01-14T12:39:25.469Z,44.30
2024-01-14T12:41:56.245Z,39.70
2024-01-14T12:44:28.230Z,41.90
2024-01-14T12:47:10.863Z,47.40
2024-01-14T12:49:41.190Z,41.00
2024-01-14T12:52:10.523Z,41.50
2024-01-14T12:54:51.444Z,39.90
2024-01-14T12:57:24.099Z,43.90
2024-01-14T12:59:53.856Z,42.40
2024-01-14T13:02:25.416Z,41.20
2024-01-14T13:04:53.845Z,44.10
2024-01-14T13:07:28.562Z,47.00
2024-01-14T13:09:59.010Z,43.70
2024-01-14T13:12:30.678Z,40.10
2024-01-14T13:15:01.469Z,42.90
2024-01-14T13:17:31.368Z,42.90
2024-01-14T13:20:03.745Z,41.70
2024-01-14T13:22:35.492Z,47.20
2024-01-14T13:25:08.326Z,47.60
2024-01-14T13:27:37.464Z,44.50
2024-01-14T13:30:09.582Z,45.40
2024-01-14T13:32:38.931Z,52.80
2024-01-14T13:35:10.833Z,50.60
2024-01-14T13:37:41.995Z,45.00
2024-01-14T13:40:11.027Z,43.40
2024-01-14T13:42:43.072Z,44.90
2024-01-14T13:45:16.168Z,41.50
2024-01-14T13:50:14.443Z,46.30
2024-01-14T13:52:42.544Z,45.10
2024-01-14T13:55:12.825Z,46.90
2024-01-14T13:57:46.269Z,40.30
2024-01-14T14:00:18.569Z,42.20
2024-01-14T14:02:47.032Z,37.30
2024-01-14T14:05:17.435Z,40.50
2024-01-14T14:07:47.727Z,34.50
2024-01-14T14:10:18.345Z,34.40
2024-01-14T14:12:49.086Z,40.60
2024-01-14T14:15:17.859Z,37.20
2024-01-14T14:17:52.334Z,38.20
2024-01-14T14:20:23.230Z,39.20
2024-01-14T14:22:52.048Z,35.70
2024-01-14T14:25:25.295Z,39.90
2024-01-14T14:27:55.460Z,40.20
2024-01-14T14:30:27.756Z,36.00
2024-01-14T14:33:01.768Z,36.60
2024-01-14T14:35:35.299Z,42.00
2024-01-14T14:38:05.734Z,41.60
2024-01-14T14:40:33.886Z,39.70
2024-01-14T14:43:05.798Z,38.00
2024-01-14T14:45:34.501Z,41.90
2024-01-14T14:48:03.154Z,39.20
2024-01-14T14:50:32.601Z,40.70
2024-01-14T14:53:04.902Z,41.40
2024-01-14T14:55:35.619Z,38.20
2024-01-14T14:58:05.761Z,35.20
2024-01-14T15:00:37.115Z,39.50
2024-01-14T15:03:06.086Z,40.60
2024-01-14T15:05:37.533Z,39.90
2024-01-14T15:08:09.339Z,40.90
2024-01-14T15:10:49.454Z,45.70
2024-01-14T15:13:25.843Z,47.90
2024-01-14T15:15:56.587Z,42.80
2024-01-14T15:18:29.081Z,45.50
2024-01-14T15:20:58.757Z,44.40
2024-01-14T15:23:28.405Z,54.20
2024-01-14T15:25:59.404Z,55.40
2024-01-14T15:28:37.958Z,53.40
2024-01-14T15:31:10.353Z,50.70
2024-01-14T15:33:46.374Z,50.90
2024-01-14T15:36:19.202Z,48.30
2024-01-14T15:38:50.438Z,50.20
2024-01-14T15:41:19.124Z,47.60
2024-01-14T15:43:48.774Z,53.30
2024-01-14T15:46:17.699Z,50.60
2024-01-14T15:48:47.687Z,46.20
2024-01-14T15:51:23.349Z,44.60
2024-01-14T15:53:58.064Z,41.70
2024-01-14T15:56:30.489Z,45.00
2024-01-14T15:58:59.116Z,40.90
2024-01-14T16:01:31.269Z,44.80
2024-01-14T16:04:01.250Z,41.40
2024-01-14T16:06:30.279Z,44.30
2024-01-14T16:08:59.968Z,34.20
2024-01-14T16:11:34.300Z,40.40
2024-01-14T16:14:03.721Z,38.70
2024-01-14T16:16:35.842Z,39.80
2024-01-14T16:19:09.076Z,42.80
2024-01-14T16:21:43.145Z,44.40
2024-01-14T16:24:11.618Z,38.10
2024-01-14T16:26:40.889Z,39.10
2024-01-14T16:29:09.346Z,39.70
2024-01-14T16:31:38.129Z,43.20
2024-01-14T16:34:07.240Z,40.50
2024-01-14T16:36:39.572Z,41.70
2024-01-14T16:39:11.103Z,39.60
2024-01-14T16:41:40.569Z,42.20
2024-01-14T16:44:12.164Z,44.20
2024-01-14T16:46:42.214Z,43.40
2024-01-14T16:49:11.619Z,43.20
2024-01-14T16:51:40.459Z,40.00
2024-01-14T16:54:11.785Z,43.10
2024-01-14T16:56:46.398Z,50.30
2024-01-14T16:59:18.110Z,49.20
2024-01-14T17:01:59.531Z,44.50
2024-01-14T17:04:31.365Z,47.40
2024-01-14T17:07:00.146Z,48.00
2024-01-14T17:09:28.665Z,46.30
2024-01-14T17:11:59.369Z,44.40
2024-01-14T17:14:28.688Z,42.70
2024-01-14T17:17:01.745Z,44.50
2024-01-14T17:19:37.904Z,41.00
2024-01-14T17:22:11.691Z,44.60
2024-01-14T17:24:52.111Z,50.10
2024-01-14T17:27:35.518Z,51.30
2024-01-14T17:30:07.941Z,56.10
2024-01-14T17:32:37.694Z,48.50
2024-01-14T17:35:10.804Z,52.60
2024-01-14T17:37:46.829Z,46.00
2024-01-14T17:40:15.582Z,48.10
2024-01-14T17:42:51.367Z,45.00
2024-01-14T17:45:24.343Z,45.60
2024-01-14T17:48:03.625Z,48.70
2024-01-14T17:50:33.909Z,55.50
2024-01-14T17:53:11.807Z,43.80
2024-01-14T17:55:47.099Z,42.60
2024-01-14T17:58:16.344Z,47.30
2024-01-14T18:00:46.560Z,46.40
2024-01-14T18:03:15.694Z,43.90
2024-01-14T18:05:44.226Z,47.80
2024-01-14T18:08:13.000Z,41.30
2024-01-14T18:10:50.546Z,37.60
2024-01-14T18:13:29.536Z,43.70
2024-01-14T18:15:57.981Z,42.20
2024-01-14T18:18:36.948Z,44.20
2024-01-14T18:21:12.367Z,50.30
2024-01-14T18:23:49.086Z,49.70
2024-01-14T18:26:31.516Z,47.40
2024-01-14T18:29:11.309Z,46.20
2024-01-14T18:31:44.356Z,48.20
2024-01-14T18:34:23.161Z,48.50
2024-01-14T18:36:55.126Z,45.90
2024-01-14T18:39:29.480Z,46.70
2024-01-14T18:42:06.275Z,47.80
2024-01-14T18:44:35.890Z,44.70
2024-01-14T18:47:14.279Z,46.60
2024-01-14T18:55:17.103Z,47.80
2024-01-14T18:57:50.104Z,45.40
2024-01-14T19:00:23.977Z,42.30
2024-01-14T19:03:01.399Z,45.00
2024-01-14T19:05:48.669Z,44.20
2024-01-14T19:08:31.976Z,48.90
2024-01-14T19:11:06.538Z,44.20
2024-01-14T19:13:38.562Z,46.80
2024-01-14T19:16:15.348Z,45.60
2024-01-14T19:18:50.166Z,44.50
2024-01-14T19:21:26.073Z,40.60
2024-01-14T19:23:56.659Z,40.70
2024-01-14T19:26:28.166Z,38.90
2024-01-14T19:28:58.268Z,38.30
2024-01-14T19:31:37.194Z,36.70
2024-01-14T19:37:02.697Z,41.50
2024-01-14T19:39:33.407Z,43.20
2024-01-14T19:42:01.776Z,44.90
2024-01-14T19:44:37.937Z,46.00
2024-01-14T19:47:13.151Z,43.80
2024-01-14T19:50:01.564Z,40.30
2024-01-14T19:52:45.288Z,44.00
2024-01-14T19:55:18.207Z,45.80
2024-01-14T19:57:49.458Z,45.60
2024-01-14T20:00:19.623Z,47.30
2024-01-14T20:02:54.231Z,44.70
2024-01-14T20:05:34.573Z,42.20
2024-01-14T20:08:05.725Z,46.10
2024-01-14T20:10:39.780Z,45.40
2024-01-14T20:13:12.346Z,43.70
2024-01-14T20:15:47.749Z,46.20
2024-01-14T20:20:47.563Z,44.50
2024-01-14T20:23:19.003Z,47.90
2024-01-14T20:25:58.199Z,48.60
2024-01-14T20:28:34.587Z,48.50
2024-01-14T20:31:07.074Z,53.10
2024-01-14T20:33:41.794Z,49.80
2024-01-14T20:36:13.489Z,51.40
2024-01-14T20:38:45.011Z,45.70
2024-01-14T20:41:13.761Z,52.00
2024-01-14T20:43:48.920Z,46.60
2024-01-14T20:46:17.507Z,47.50
2024-01-14T20:48:49.142Z,45.30
2024-01-14T20:51:25.567Z,47.10
2024-01-14T20:54:00.982Z,43.30
2024-01-14T20:56:31.732Z,47.40
2024-01-14T20:59:12.386Z,48.20
2024-01-14T21:01:40.910Z,49.00
2024-01-14T21:04:09.279Z,46.10
2024-01-14T21:06:37.714Z,48.30
2024-01-14T21:09:11.591Z,48.50
2024-01-14T21:11:39.707Z,47.90
2024-01-14T21:14:08.319Z,51.00
2024-01-14T21:16:36.480Z,50.60
2024-01-14T21:19:05.290Z,47.50
2024-01-14T21:21:33.683Z,48.10
2024-01-14T21:24:04.916Z,49.20
2024-01-14T21:26:33.088Z,49.50
2024-01-14T21:29:04.887Z,47.00
2024-01-14T21:31:33.186Z,47.20
2024-01-14T21:34:02.853Z,56.40
2024-01-14T21:36:31.309Z,54.20
2024-01-14T21:39:01.494Z,51.60
2024-01-14T21:41:30.360Z,69.70
2024-01-14T21:43:59.674Z,71.90
2024-01-14T21:46:32.283Z,67.80
2024-01-14T21:49:00.485Z,69.70
2024-01-14T21:51:29.576Z,65.80
2024-01-14T21:53:59.274Z,67.20
2024-01-14T21:56:27.600Z,67.50
2024-01-14T21:58:55.754Z,70.00
2024-01-14T22:01:24.134Z,67.40
2024-01-14T22:03:52.366Z,68.10
2024-01-14T22:06:20.575Z,63.40
2024-01-14T22:08:48.767Z,71.40
2024-01-14T22:11:17.142Z,63.70
2024-01-14T22:13:48.226Z,65.60
2024-01-14T22:16:16.415Z,65.40
2024-01-14T22:18:45.029Z,66.50
2024-01-14T22:21:13.361Z,66.20
2024-01-14T22:23:42.620Z,61.00
2024-01-14T22:26:12.024Z,64.50
2024-01-14T22:28:40.896Z,65.70
2024-01-14T22:31:09.490Z,68.30
2024-01-14T22:33:37.822Z,60.00
2024-01-14T22:36:07.458Z,63.50
2024-01-14T22:38:40.710Z,64.50
2024-01-14T22:41:15.029Z,64.40
2024-01-14T22:43:46.275Z,65.40
2024-01-14T22:46:20.439Z,60.10
2024-01-14T22:48:48.750Z,64.90
2024-01-14T22:51:19.108Z,64.30
2024-01-14T22:53:48.978Z,74.00
2024-01-14T22:56:18.560Z,65.30
2024-01-14T22:58:47.393Z,63.60
2024-01-14T23:01:15.539Z,69.40
2024-01-14T23:03:44.389Z,66.30
2024-01-14T23:06:13.744Z,71.20
2024-01-14T23:08:42.201Z,69.30
2024-01-14T23:11:11.430Z,71.70
2024-01-14T23:13:40.090Z,69.70
2024-01-14T23:16:09.911Z,71.60
2024-01-14T23:18:38.211Z,70.30
2024-01-14T23:21:09.441Z,71.40
2024-01-14T23:23:37.848Z,66.70
2024-01-14T23:26:07.236Z,71.30
2024-01-14T23:28:35.377Z,68.60
2024-01-14T23:31:03.770Z,66.50
2024-01-14T23:33:32.236Z,68.00
2024-01-14T23:36:00.492Z,69.80
2024-01-14T23:38:29.060Z,67.40
2024-01-14T23:40:57.299Z,69.50
2024-01-14T23:43:25.794Z,63.90
2024-01-14T23:45:53.963Z,73.20
2024-01-14T23:48:22.238Z,74.30
2024-01-14T23:50:50.679Z,78.70
2024-01-14T23:53:20.008Z,82.90
2024-01-14T23:55:48.164Z,99.20
2024-01-14T23:58:17.859Z,91.40
